createdAt,value
2019-01-18T00:00:55.800Z,4.10
2019-01-18T00:04:00.649Z,5.33
2019-01-18T00:07:05.542Z,5.10
2019-01-18T00:10:10.698Z,4.30
2019-01-18T00:13:15.501Z,4.30
2019-01-18T00:16:20.371Z,4.17
2019-01-18T00:19:25.206Z,4.57
2019-01-18T00:22:30.057Z,4.93
2019-01-18T00:25:34.888Z,4.53
2019-01-18T00:28:39.697Z,4.10
2019-01-18T00:31:44.535Z,5.97
2019-01-18T00:34:49.354Z,5.43
2019-01-18T00:37:54.174Z,4.90
2019-01-18T00:40:59.015Z,5.50
2019-01-18T00:44:03.959Z,4.70
2019-01-18T00:47:08.831Z,4.53
2019-01-18T00:50:16.308Z,4.57
2019-01-18T00:53:21.149Z,4.30
2019-01-18T00:56:25.954Z,4.23
2019-01-18T00:59:36.312Z,3.70
2019-01-18T01:02:37.345Z,4.97
2019-01-18T01:05:42.190Z,4.00
2019-01-18T01:08:48.071Z,4.33
2019-01-18T01:11:52.894Z,5.97
2019-01-18T01:14:57.729Z,3.83
2019-01-18T01:18:02.582Z,4.10
2019-01-18T01:21:07.409Z,3.80
2019-01-18T01:24:12.256Z,3.83
2019-01-18T01:27:17.695Z,3.93
2019-01-18T01:30:24.549Z,4.00
2019-01-18T01:33:29.384Z,4.00
2019-01-18T01:36:34.258Z,2.87
2019-01-18T01:39:40.113Z,2.40
2019-01-18T01:42:45.082Z,3.00
2019-01-18T01:45:49.926Z,3.43
2019-01-18T01:48:54.813Z,2.67
2019-01-18T01:51:59.711Z,3.03
2019-01-18T01:55:05.981Z,3.08
2019-01-18T01:58:10.819Z,3.10
2019-01-18T02:01:15.645Z,2.83
2019-01-18T02:04:20.477Z,3.13
2019-01-18T02:07:25.293Z,2.93
2019-01-18T02:10:30.133Z,3.13
2019-01-18T02:13:34.970Z,4.03
2019-01-18T02:16:39.793Z,3.00
2019-01-18T02:19:45.530Z,3.13
2019-01-18T02:22:50.993Z,3.00
2019-01-18T02:25:55.824Z,3.27
2019-01-18T02:29:01.152Z,3.58
2019-01-18T02:32:06.075Z,3.60
2019-01-18T02:35:11.008Z,3.03
2019-01-18T02:38:15.877Z,3.23
2019-01-18T02:41:20.761Z,3.43
2019-01-18T02:44:25.566Z,3.53
2019-01-18T02:47:30.400Z,3.93
2019-01-18T02:50:36.283Z,3.33
2019-01-18T02:53:41.208Z,3.12
2019-01-18T02:56:46.096Z,2.97
2019-01-18T02:59:50.911Z,2.83
2019-01-18T03:02:55.803Z,3.73
2019-01-18T03:06:00.747Z,3.03
2019-01-18T03:09:08.405Z,3.10
2019-01-18T03:12:13.266Z,3.40
2019-01-18T03:15:18.145Z,3.40
2019-01-18T03:18:22.996Z,3.17
2019-01-18T03:21:27.827Z,3.67
2019-01-18T03:24:32.712Z,4.43
2019-01-18T03:27:37.647Z,3.60
2019-01-18T03:30:42.538Z,3.00
2019-01-18T03:33:47.389Z,3.60
2019-01-18T03:36:52.184Z,4.33
2019-01-18T03:39:57.050Z,3.77
2019-01-18T03:43:01.857Z,4.63
2019-01-18T03:46:06.677Z,4.30
2019-01-18T03:49:11.498Z,4.30
2019-01-18T03:52:16.301Z,3.70
2019-01-18T03:55:21.194Z,4.00
2019-01-18T03:58:26.017Z,3.83
2019-01-18T04:04:42.968Z,4.83
2019-01-18T04:07:47.787Z,4.10
2019-01-18T04:10:52.618Z,3.80
2019-01-18T04:13:57.439Z,3.80
2019-01-18T04:17:02.297Z,4.13
2019-01-18T04:20:10.349Z,4.17
2019-01-18T04:23:15.186Z,7.57
2019-01-18T04:26:20.037Z,4.10
2019-01-18T04:29:24.953Z,4.17
2019-01-18T04:32:29.865Z,5.63
2019-01-18T04:35:34.678Z,6.30
2019-01-18T04:38:39.534Z,4.77
2019-01-18T04:41:44.331Z,3.50
2019-01-18T04:44:49.196Z,5.57
2019-01-18T04:47:54.022Z,5.63
2019-01-18T04:50:58.980Z,3.07
2019-01-18T04:54:04.266Z,3.10
2019-01-18T04:57:09.112Z,3.30
2019-01-18T05:00:31.105Z,3.27
2019-01-18T05:03:36.014Z,3.20
2019-01-18T05:06:40.921Z,3.23
2019-01-18T05:09:45.756Z,3.03
2019-01-18T05:12:50.598Z,3.23
2019-01-18T05:15:55.426Z,4.03
2019-01-18T05:19:00.266Z,3.47
2019-01-18T05:22:05.138Z,3.93
2019-01-18T05:25:12.067Z,3.37
2019-01-18T05:28:17.152Z,3.47
2019-01-18T05:31:21.969Z,2.97
2019-01-18T05:34:26.811Z,3.30
2019-01-18T05:37:31.654Z,3.40
2019-01-18T05:40:36.548Z,3.30
2019-01-18T05:43:41.392Z,4.23
2019-01-18T05:46:46.265Z,3.27
2019-01-18T05:49:51.126Z,3.33
2019-01-18T05:52:55.959Z,2.93
2019-01-18T05:56:00.795Z,3.00
2019-01-18T05:59:05.699Z,3.30
2019-01-18T06:02:10.539Z,2.93
2019-01-18T06:05:17.882Z,3.40
2019-01-18T06:08:22.687Z,3.00
2019-01-18T06:11:27.542Z,3.27
2019-01-18T06:14:32.390Z,3.67
2019-01-18T06:17:37.285Z,3.53
2019-01-18T06:20:42.157Z,3.20
2019-01-18T06:23:46.979Z,3.00
2019-01-18T06:26:51.849Z,3.63
2019-01-18T06:29:56.719Z,3.10
2019-01-18T06:33:01.549Z,3.30
2019-01-18T06:36:06.472Z,3.00
2019-01-18T06:39:11.315Z,3.47
2019-01-18T06:42:16.692Z,3.20
2019-01-18T06:45:24.347Z,2.90
2019-01-18T06:48:29.518Z,3.27
2019-01-18T06:51:34.360Z,6.87
2019-01-18T06:54:39.174Z,3.30
2019-01-18T06:57:44.017Z,3.00
2019-01-18T07:00:48.859Z,3.17
2019-01-18T07:03:53.682Z,3.47
2019-01-18T07:06:58.553Z,3.70
2019-01-18T07:10:07.454Z,3.23
2019-01-18T07:13:12.281Z,3.07
2019-01-18T07:16:17.142Z,3.05
2019-01-18T07:19:21.986Z,3.20
2019-01-18T07:22:26.843Z,3.37
2019-01-18T07:25:31.822Z,3.37
2019-01-18T07:28:36.654Z,3.87
2019-01-18T07:31:41.495Z,3.30
2019-01-18T07:34:46.354Z,3.27
2019-01-18T07:37:51.419Z,2.83
2019-01-18T07:40:56.400Z,3.93
2019-01-18T07:44:01.297Z,3.33
2019-01-18T07:47:06.119Z,3.10
2019-01-18T07:50:12.699Z,3.13
2019-01-18T07:53:17.542Z,3.20
2019-01-18T07:56:22.347Z,2.93
2019-01-18T07:59:27.196Z,6.10
2019-01-18T08:02:32.006Z,4.07
2019-01-18T08:05:36.850Z,3.50
2019-01-18T08:08:41.717Z,3.20
2019-01-18T08:11:46.546Z,3.43
2019-01-18T08:14:51.487Z,3.50
2019-01-18T08:17:56.953Z,3.47
2019-01-18T08:21:01.763Z,3.30
2019-01-18T08:24:06.618Z,3.33
2019-01-18T08:27:11.553Z,3.00
2019-01-18T08:30:21.612Z,4.00
2019-01-18T08:33:26.463Z,3.03
2019-01-18T08:36:31.361Z,3.13
2019-01-18T08:39:36.157Z,3.33
2019-01-18T08:42:41.017Z,7.27
2019-01-18T08:45:48.203Z,3.33
2019-01-18T08:48:53.114Z,3.60
2019-01-18T08:51:58.333Z,10.70
2019-01-18T08:55:03.206Z,4.57
2019-01-18T08:58:08.028Z,3.63
2019-01-18T09:01:12.882Z,3.23
2019-01-18T09:04:17.774Z,3.60
2019-01-18T09:07:22.597Z,3.83
2019-01-18T09:10:35.997Z,4.13
2019-01-18T09:13:40.878Z,4.93
2019-01-18T09:16:45.751Z,4.00
2019-01-18T09:19:50.586Z,3.90
2019-01-18T09:22:55.435Z,6.43
2019-01-18T09:26:00.250Z,4.23
2019-01-18T09:29:05.123Z,3.83
2019-01-18T09:32:10.005Z,6.53
2019-01-18T09:35:16.872Z,3.77
2019-01-18T09:38:22.657Z,3.73
2019-01-18T09:41:27.675Z,4.10
2019-01-18T09:44:32.581Z,3.75
2019-01-18T09:47:37.520Z,3.57
2019-01-18T09:50:42.363Z,4.00
2019-01-18T09:53:47.258Z,3.93
2019-01-18T09:56:52.131Z,3.67
2019-01-18T09:59:57.006Z,4.27
2019-01-18T10:03:02.718Z,3.75
2019-01-18T10:06:07.515Z,4.50
2019-01-18T10:09:12.366Z,4.83
2019-01-18T10:12:17.232Z,3.90
2019-01-18T10:15:27.722Z,5.67
2019-01-18T10:18:32.554Z,3.83
2019-01-18T10:21:37.386Z,4.07
2019-01-18T10:24:42.226Z,3.70
2019-01-18T10:27:47.453Z,5.22
2019-01-18T10:30:52.315Z,3.80
2019-01-18T10:33:57.151Z,6.20
2019-01-18T10:37:02.074Z,5.53
2019-01-18T10:40:10.020Z,5.53
2019-01-18T10:43:14.832Z,4.47
2019-01-18T10:46:19.687Z,6.70
2019-01-18T10:49:24.517Z,6.57
2019-01-18T10:52:29.337Z,4.13
2019-01-18T10:55:34.234Z,4.10
2019-01-18T10:58:39.252Z,4.50
2019-01-18T11:01:44.128Z,4.10
2019-01-18T11:04:48.975Z,4.10
2019-01-18T11:07:53.798Z,4.07
2019-01-18T11:10:58.631Z,7.93
2019-01-18T11:14:03.447Z,3.93
2019-01-18T11:17:08.312Z,5.83
2019-01-18T11:20:18.993Z,4.40
2019-01-18T11:23:23.856Z,5.40
2019-01-18T11:26:28.682Z,3.85
2019-01-18T11:29:33.519Z,4.10
2019-01-18T11:32:38.561Z,3.70
2019-01-18T11:35:43.396Z,5.27
2019-01-18T11:38:48.235Z,4.47
2019-01-18T11:41:53.111Z,3.50
2019-01-18T11:44:57.946Z,6.00
2019-01-18T11:48:18.489Z,3.43
2019-01-18T11:51:23.855Z,3.35
2019-01-18T11:54:28.710Z,3.50
2019-01-18T11:57:33.602Z,3.80
2019-01-18T12:00:38.520Z,4.93
2019-01-18T12:03:43.383Z,3.15
2019-01-18T12:06:48.212Z,3.60
2019-01-18T12:09:53.017Z,3.60
2019-01-18T12:12:57.843Z,3.20
2019-01-18T12:16:02.662Z,4.57
2019-01-18T12:19:07.498Z,3.27
2019-01-18T12:22:12.403Z,3.27
2019-01-18T12:25:18.026Z,5.45
2019-01-18T12:28:22.948Z,4.07
2019-01-18T12:31:28.053Z,3.47
2019-01-18T12:34:32.986Z,3.47
2019-01-18T12:37:37.907Z,6.13
2019-01-18T12:40:42.826Z,4.70
2019-01-18T12:43:47.663Z,3.22
2019-01-18T12:46:52.729Z,5.27
2019-01-18T12:49:57.598Z,3.60
2019-01-18T12:53:02.673Z,3.10
2019-01-18T12:56:07.654Z,3.30
2019-01-18T12:59:12.594Z,4.20
2019-01-18T13:02:17.484Z,6.33
2019-01-18T13:05:37.229Z,3.40
2019-01-18T13:08:42.074Z,4.40
2019-01-18T13:11:48.515Z,4.03
2019-01-18T13:14:57.236Z,6.60
2019-01-18T13:17:59.858Z,4.13
2019-01-18T13:21:05.154Z,4.00
2019-01-18T13:24:10.039Z,3.70
2019-01-18T13:27:14.876Z,3.80
2019-01-18T13:30:20.107Z,3.90
2019-01-18T13:33:24.943Z,3.60
2019-01-18T13:36:29.831Z,8.10
2019-01-18T13:39:34.654Z,4.03
2019-01-18T13:42:39.469Z,3.97
2019-01-18T13:45:44.347Z,3.77
2019-01-18T13:48:49.194Z,5.00
2019-01-18T13:51:54.009Z,3.93
2019-01-18T13:54:58.876Z,5.10
2019-01-18T13:58:03.753Z,3.40
2019-01-18T14:01:08.625Z,5.93
2019-01-18T14:04:13.521Z,4.73
2019-01-18T14:07:18.340Z,4.03
2019-01-18T14:10:26.523Z,3.40
2019-01-18T14:13:31.421Z,7.00
2019-01-18T14:16:36.292Z,3.30
2019-01-18T14:19:41.107Z,5.17
2019-01-18T14:22:45.942Z,3.98
2019-01-18T14:25:50.846Z,7.00
2019-01-18T14:28:55.710Z,4.17
2019-01-18T14:32:00.649Z,4.53
2019-01-18T14:35:06.422Z,3.90
2019-01-18T14:38:11.346Z,5.37
2019-01-18T14:41:16.170Z,4.10
2019-01-18T14:44:20.970Z,5.63
2019-01-18T14:47:25.789Z,4.30
2019-01-18T14:50:30.601Z,3.87
2019-01-18T14:53:35.429Z,7.20
2019-01-18T14:56:40.287Z,4.73
2019-01-18T14:59:45.190Z,5.47
2019-01-18T15:02:50.161Z,5.77
2019-01-18T15:05:55.030Z,4.83
2019-01-18T15:09:00.034Z,4.47
2019-01-18T15:12:05.013Z,4.40
2019-01-18T15:15:12.748Z,5.93
2019-01-18T15:18:17.561Z,5.60
2019-01-18T15:21:22.403Z,5.90
2019-01-18T15:24:27.282Z,4.40
2019-01-18T15:27:32.262Z,4.73
2019-01-18T15:30:37.106Z,4.97
2019-01-18T15:33:41.932Z,4.13
2019-01-18T15:36:46.766Z,4.33
2019-01-18T15:39:51.646Z,5.13
2019-01-18T15:42:58.381Z,4.57
2019-01-18T15:46:03.262Z,4.50
2019-01-18T15:49:08.239Z,4.80
2019-01-18T15:52:13.071Z,6.40
2019-01-18T15:55:17.943Z,6.10
2019-01-18T15:58:22.782Z,7.73
2019-01-18T16:01:27.706Z,4.07
2019-01-18T16:04:32.511Z,7.20
2019-01-18T16:07:37.329Z,4.70
2019-01-18T16:10:42.251Z,6.67
2019-01-18T16:13:47.103Z,5.77
2019-01-18T16:16:51.952Z,5.20
2019-01-18T16:19:56.839Z,4.53
2019-01-18T16:23:01.669Z,6.25
2019-01-18T16:26:06.692Z,7.47
2019-01-18T16:29:11.562Z,9.10
2019-01-18T16:32:16.396Z,5.57
2019-01-18T16:35:21.242Z,5.70
2019-01-18T16:38:26.590Z,6.50
2019-01-18T16:41:32.672Z,10.27
2019-01-18T16:44:38.019Z,4.27
2019-01-18T16:47:42.881Z,5.10
2019-01-18T16:50:48.132Z,6.75
2019-01-18T16:53:53.091Z,5.03
2019-01-18T16:56:58.109Z,4.80
2019-01-18T17:00:04.728Z,7.50
2019-01-18T17:03:10.461Z,9.47
2019-01-18T17:06:17.855Z,6.73
2019-01-18T17:09:23.642Z,5.83
2019-01-18T17:12:29.304Z,7.17
2019-01-18T17:15:34.455Z,7.03
2019-01-18T17:18:39.531Z,7.97
2019-01-18T17:21:44.673Z,7.57
2019-01-18T17:24:49.579Z,8.00
2019-01-18T17:27:54.559Z,6.53
2019-01-18T17:30:59.527Z,4.83
2019-01-18T17:34:04.516Z,9.80
2019-01-18T17:37:10.018Z,5.00
2019-01-18T17:40:21.141Z,5.33
2019-01-18T17:43:35.170Z,10.67
2019-01-18T17:47:03.946Z,7.80
2019-01-18T17:50:40.429Z,7.07
2019-01-18T17:53:54.259Z,5.03
2019-01-18T17:57:07.676Z,7.80
2019-01-18T18:00:30.117Z,5.03
2019-01-18T18:03:52.939Z,6.40
2019-01-18T18:07:17.344Z,4.83
2019-01-18T18:10:42.401Z,8.03
2019-01-18T18:13:53.452Z,8.63
2019-01-18T18:17:12.633Z,7.57
2019-01-18T18:20:39.894Z,10.80
2019-01-18T18:23:50.695Z,6.03
2019-01-18T18:27:19.178Z,5.53
2019-01-18T18:30:27.090Z,4.77
2019-01-18T18:33:50.927Z,7.40
2019-01-18T18:37:07.891Z,5.10
2019-01-18T18:40:34.070Z,7.23
2019-01-18T18:43:44.777Z,10.10
2019-01-18T18:46:58.339Z,7.63
2019-01-18T18:50:15.047Z,7.40
2019-01-18T18:53:31.963Z,9.43
2019-01-18T18:56:45.709Z,5.97
2019-01-18T19:00:10.683Z,9.50
2019-01-18T19:03:30.602Z,6.17
2019-01-18T19:06:51.404Z,9.27
2019-01-18T19:10:04.944Z,6.70
2019-01-18T19:13:34.331Z,6.53
2019-01-18T19:16:53.764Z,7.07
2019-01-18T19:20:13.824Z,7.77
2019-01-18T19:23:33.739Z,7.90
2019-01-18T19:26:47.721Z,9.63
2019-01-18T19:30:10.246Z,8.43
2019-01-18T19:33:18.160Z,9.63
2019-01-18T19:36:26.310Z,9.67
2019-01-18T19:39:34.282Z,9.23
2019-01-18T19:42:48.239Z,9.87
2019-01-18T19:46:08.055Z,7.33
2019-01-18T19:49:34.087Z,12.63
2019-01-18T19:52:53.752Z,11.17
2019-01-18T19:56:01.732Z,7.07
2019-01-18T19:59:15.476Z,6.90
2019-01-18T20:02:33.369Z,7.90
2019-01-18T20:05:44.113Z,14.80
2019-01-18T20:09:06.392Z,8.00
2019-01-18T20:12:26.498Z,8.53
2019-01-18T20:15:38.117Z,10.40
2019-01-18T20:18:57.993Z,10.67
2019-01-18T20:22:25.813Z,9.98
2019-01-18T20:25:46.964Z,7.97
2019-01-18T20:29:29.906Z,11.23
2019-01-18T20:32:40.205Z,10.40
2019-01-18T20:35:59.585Z,8.30
2019-01-18T20:39:16.343Z,8.67
2019-01-18T20:42:33.143Z,8.53
2019-01-18T20:46:00.595Z,9.43
2019-01-18T20:49:17.612Z,10.10
2019-01-18T20:52:31.221Z,8.65
2019-01-18T20:55:54.402Z,8.13
2019-01-18T20:59:14.056Z,8.40
2019-01-18T21:02:41.175Z,8.30
2019-01-18T21:05:55.096Z,8.28
2019-01-18T21:09:19.574Z,8.87
2019-01-18T21:12:30.155Z,9.00
2019-01-18T21:15:41.491Z,9.83
2019-01-18T21:19:09.334Z,8.13
2019-01-18T21:22:35.797Z,9.40
2019-01-18T21:25:44.625Z,10.33
2019-01-18T21:29:07.372Z,10.70
2019-01-18T21:32:20.459Z,10.90
2019-01-18T21:35:29.395Z,10.73
2019-01-18T21:39:10.905Z,11.93
2019-01-18T21:42:44.753Z,10.50
2019-01-18T21:46:01.933Z,14.13
2019-01-18T21:49:12.614Z,9.70
2019-01-18T21:52:32.407Z,9.93
2019-01-18T21:55:56.491Z,10.10
2019-01-18T21:59:07.389Z,9.57
2019-01-18T22:02:24.676Z,10.60
2019-01-18T22:05:49.372Z,11.30
2019-01-18T22:09:08.159Z,10.65
2019-01-18T22:12:25.092Z,9.70
2019-01-18T22:16:04.763Z,9.10
2019-01-18T22:19:36.810Z,11.45
2019-01-18T22:22:50.450Z,8.57
2019-01-18T22:26:12.852Z,9.63
2019-01-18T22:29:26.667Z,11.70
2019-01-18T22:32:34.588Z,8.60
2019-01-18T22:35:51.010Z,15.43
2019-01-18T22:39:14.124Z,10.50
2019-01-18T22:42:25.024Z,10.00
2019-01-18T22:45:44.697Z,7.13
2019-01-18T22:48:58.637Z,8.40
2019-01-18T22:52:21.431Z,10.33
2019-01-18T22:55:34.951Z,7.83
2019-01-18T22:59:00.896Z,7.63
2019-01-18T23:02:20.432Z,8.73
2019-01-18T23:05:43.518Z,8.30
2019-01-18T23:09:27.734Z,12.87
2019-01-18T23:12:47.524Z,8.93
2019-01-18T23:15:55.989Z,8.85
2019-01-18T23:19:15.686Z,9.57
2019-01-18T23:22:35.326Z,9.83
2019-01-18T23:25:55.202Z,11.20
2019-01-18T23:29:21.719Z,8.27
2019-01-18T23:32:38.200Z,7.77
2019-01-18T23:35:48.782Z,6.73
2019-01-18T23:39:24.061Z,7.97
2019-01-18T23:42:38.375Z,10.97
2019-01-18T23:45:49.258Z,7.50
2019-01-18T23:48:59.927Z,7.17
2019-01-18T23:52:25.873Z,8.17
2019-01-18T23:56:07.338Z,8.27
2019-01-18T23:59:27.311Z,6.83
